createdAt,value
2023-03-24T00:01:53.821Z,64.20
2023-03-24T00:07:25.345Z,64.30
2023-03-24T00:12:53.328Z,64.40
2023-03-24T00:18:22.898Z,64.50
2023-03-24T00:23:54.544Z,65.10
2023-03-24T00:29:22.578Z,64.70
2023-03-24T00:34:52.603Z,65.40
2023-03-24T00:40:22.497Z,64.80
2023-03-24T00:45:52.546Z,64.80
2023-03-24T00:51:20.640Z,64.80
2023-03-24T00:56:55.962Z,64.60
2023-03-24T01:02:26.599Z,64.80
2023-03-24T01:07:59.150Z,64.70
2023-03-24T01:13:29.347Z,64.80
2023-03-24T01:18:57.212Z,64.70
2023-03-24T01:24:26.182Z,64.80
2023-03-24T01:30:00.565Z,64.70
2023-03-24T01:35:29.554Z,64.90
2023-03-24T01:40:57.906Z,65.20
2023-03-24T01:46:27.041Z,64.90
2023-03-24T01:52:01.149Z,65.00
2023-03-24T01:57:41.865Z,65.10
2023-03-24T02:03:15.357Z,65.10
2023-03-24T02:08:56.884Z,65.00
2023-03-24T02:14:29.690Z,65.00
2023-03-24T02:20:10.910Z,64.40
2023-03-24T02:26:08.075Z,65.20
2023-03-24T02:31:50.995Z,65.20
2023-03-24T02:38:14.303Z,65.30
2023-03-24T02:44:06.863Z,65.40
2023-03-24T02:49:52.151Z,65.40
2023-03-24T02:55:28.578Z,65.60
2023-03-24T03:01:13.964Z,65.70
2023-03-24T03:07:06.447Z,66.00
2023-03-24T03:12:37.640Z,66.30
2023-03-24T03:18:21.249Z,66.40
2023-03-24T03:24:17.173Z,66.60
2023-03-24T03:29:54.371Z,66.60
2023-03-24T03:35:54.529Z,66.60
2023-03-24T03:41:23.006Z,66.70
2023-03-24T03:46:51.305Z,66.70
2023-03-24T03:52:26.861Z,66.80
2023-03-24T03:57:56.008Z,67.00
2023-03-24T04:04:05.711Z,67.80
2023-03-24T04:10:23.222Z,67.30
2023-03-24T04:15:58.544Z,67.60
2023-03-24T04:22:04.686Z,67.70
2023-03-24T04:27:57.199Z,67.60
2023-03-24T04:33:39.266Z,67.90
2023-03-24T04:39:16.325Z,68.10
2023-03-24T04:44:53.485Z,68.10
2023-03-24T04:50:43.814Z,68.10
2023-03-24T04:56:40.423Z,68.00
2023-03-24T05:02:17.397Z,68.10
2023-03-24T05:08:16.483Z,68.00
2023-03-24T05:13:44.884Z,68.00
2023-03-24T05:19:13.137Z,68.20
2023-03-24T05:30:11.361Z,67.50
2023-03-24T05:35:39.766Z,68.20
2023-03-24T05:41:09.925Z,68.60
2023-03-24T05:46:42.625Z,69.50
2023-03-24T05:52:13.186Z,69.10
2023-03-24T05:57:44.752Z,68.70
2023-03-24T06:03:34.445Z,69.30
2023-03-24T06:09:09.899Z,68.80
2023-03-24T06:14:38.720Z,68.90
2023-03-24T06:20:16.257Z,68.90
2023-03-24T06:26:01.774Z,69.00
2023-03-24T06:31:32.903Z,69.10
2023-03-24T06:37:02.116Z,69.10
2023-03-24T06:42:31.161Z,69.30
2023-03-24T06:53:28.206Z,68.70
2023-03-24T06:59:01.407Z,69.40
2023-03-24T07:04:36.730Z,69.50
2023-03-24T07:10:27.012Z,69.50
2023-03-24T07:15:57.134Z,68.90
2023-03-24T07:21:26.151Z,70.60
2023-03-24T07:26:58.340Z,70.10
2023-03-24T07:32:28.881Z,69.70
2023-03-24T07:38:01.995Z,70.00
2023-03-24T07:43:30.795Z,69.90
2023-03-24T07:49:12.263Z,70.20
2023-03-24T07:54:50.712Z,70.70
2023-03-24T08:00:45.331Z,70.70
2023-03-24T08:06:26.756Z,70.90
2023-03-24T08:11:58.975Z,71.00
2023-03-24T08:17:31.043Z,71.00
2023-03-24T08:22:59.048Z,71.10
2023-03-24T08:28:27.077Z,71.00
2023-03-24T08:33:54.941Z,70.90
2023-03-24T08:39:24.325Z,70.80
2023-03-24T08:44:52.942Z,70.90
2023-03-24T08:50:24.024Z,71.00
2023-03-24T08:55:52.530Z,71.30
2023-03-24T09:01:24.070Z,70.50
2023-03-24T09:06:53.784Z,70.50
2023-03-24T09:12:21.724Z,70.40
2023-03-24T09:17:49.668Z,70.40
2023-03-24T09:23:18.143Z,70.20
2023-03-24T09:28:46.364Z,70.00
2023-03-24T09:34:14.283Z,70.00
2023-03-24T09:39:42.181Z,70.00
2023-03-24T09:45:18.981Z,70.00
2023-03-24T09:50:56.140Z,70.40
2023-03-24T09:56:26.366Z,70.80
2023-03-24T10:01:54.203Z,71.80
2023-03-24T10:08:00.138Z,72.20
2023-03-24T10:14:12.700Z,72.40
2023-03-24T10:19:52.248Z,73.30
2023-03-24T10:25:46.089Z,74.10
2023-03-24T10:31:16.718Z,74.50
2023-03-24T10:36:45.474Z,74.90
2023-03-24T10:42:28.828Z,75.60
2023-03-24T10:48:02.400Z,75.80
2023-03-24T10:53:30.305Z,76.40
2023-03-24T10:58:58.160Z,77.00
2023-03-24T11:04:28.602Z,76.60
2023-03-24T11:10:13.794Z,76.50
2023-03-24T11:16:14.830Z,76.60
2023-03-24T11:21:43.532Z,77.20
2023-03-24T11:27:16.632Z,76.30
2023-03-24T11:32:48.303Z,76.70
2023-03-24T11:38:29.884Z,76.80
2023-03-24T11:44:24.668Z,77.40
2023-03-24T11:50:31.675Z,78.40
2023-03-24T11:56:18.918Z,77.70
2023-03-24T12:02:14.700Z,77.60
2023-03-24T12:08:27.276Z,77.30
2023-03-24T12:13:57.818Z,77.20
2023-03-24T12:19:48.964Z,77.00
2023-03-24T12:25:34.972Z,76.90
2023-03-24T12:31:18.095Z,76.90
2023-03-24T12:37:19.674Z,76.70
2023-03-24T12:42:48.047Z,76.60
2023-03-24T12:48:40.195Z,76.20
2023-03-24T12:54:34.814Z,76.00
2023-03-24T13:00:29.439Z,75.70
2023-03-24T13:06:16.939Z,75.50
2023-03-24T13:12:15.679Z,75.40
2023-03-24T13:18:36.968Z,75.40
2023-03-24T13:24:14.823Z,75.40
2023-03-24T13:30:08.988Z,75.60
2023-03-24T13:36:00.102Z,76.00
2023-03-24T13:41:37.738Z,75.60
2023-03-24T13:47:12.565Z,76.00
2023-03-24T13:52:49.522Z,76.10
2023-03-24T13:58:25.583Z,76.20
2023-03-24T14:04:19.659Z,76.50
2023-03-24T14:10:16.690Z,76.40
2023-03-24T14:15:58.036Z,76.30
2023-03-24T14:21:31.679Z,76.20
2023-03-24T14:26:59.579Z,76.30
2023-03-24T14:32:27.540Z,76.10
2023-03-24T14:38:00.270Z,76.10
2023-03-24T14:43:32.470Z,76.00
2023-03-24T14:49:32.989Z,75.80
2023-03-24T14:55:10.113Z,75.70
2023-03-24T15:01:03.835Z,75.20
2023-03-24T15:06:46.968Z,75.10
2023-03-24T15:12:15.006Z,74.70
2023-03-24T15:17:44.617Z,74.50
2023-03-24T15:23:23.935Z,74.20
2023-03-24T15:29:11.535Z,74.00
2023-03-24T15:34:54.612Z,74.00
2023-03-24T15:40:26.453Z,73.80
2023-03-24T15:46:08.799Z,73.70
2023-03-24T15:52:18.715Z,73.80
2023-03-24T15:57:47.953Z,73.80
2023-03-24T16:03:18.072Z,73.80
2023-03-24T16:08:49.732Z,73.80
2023-03-24T16:14:29.033Z,74.00
2023-03-24T16:19:56.834Z,74.70
2023-03-24T16:25:26.631Z,75.90
2023-03-24T16:31:03.542Z,77.30
2023-03-24T16:36:31.692Z,77.50
2023-03-24T16:41:59.544Z,78.00
2023-03-24T16:47:27.510Z,79.10
2023-03-24T16:52:55.377Z,78.80
2023-03-24T16:58:26.208Z,79.20
2023-03-24T17:03:59.897Z,79.50
2023-03-24T17:09:30.700Z,80.00
2023-03-24T17:14:58.703Z,80.00
2023-03-24T17:20:29.687Z,80.10
2023-03-24T17:25:57.653Z,80.70
2023-03-24T17:31:25.751Z,80.70
2023-03-24T17:36:53.649Z,81.00
2023-03-24T17:42:22.176Z,81.10
2023-03-24T17:47:50.093Z,81.40
2023-03-24T17:53:25.843Z,82.00
2023-03-24T17:58:55.071Z,81.50
2023-03-24T18:04:24.060Z,81.80
2023-03-24T18:09:51.971Z,81.50
2023-03-24T18:15:19.775Z,81.30
2023-03-24T18:20:48.771Z,83.30
2023-03-24T18:26:18.142Z,80.90
2023-03-24T18:31:53.220Z,80.80
2023-03-24T18:37:21.103Z,80.70
2023-03-24T18:42:48.967Z,80.50
2023-03-24T18:48:16.906Z,80.50
2023-03-24T18:53:44.819Z,80.40
2023-03-24T18:59:12.786Z,80.20
2023-03-24T19:04:40.896Z,80.10
2023-03-24T19:10:09.137Z,80.00
2023-03-24T19:15:37.216Z,80.00
2023-03-24T19:21:07.024Z,80.00
2023-03-24T19:26:35.019Z,80.20
2023-03-24T19:32:04.247Z,79.90
2023-03-24T19:37:37.677Z,79.80
2023-03-24T19:43:05.536Z,79.20
2023-03-24T19:48:34.766Z,78.90
2023-03-24T19:54:04.169Z,78.60
2023-03-24T19:59:32.041Z,78.40
2023-03-24T20:05:00.044Z,77.70
2023-03-24T20:10:28.742Z,77.20
2023-03-24T20:21:25.484Z,75.00
2023-03-24T20:26:53.387Z,75.70
2023-03-24T20:32:21.444Z,75.00
2023-03-24T20:37:49.385Z,75.60
2023-03-24T20:43:20.618Z,74.60
2023-03-24T20:48:48.541Z,74.70
2023-03-24T20:54:19.181Z,75.70
2023-03-24T20:59:48.480Z,75.80
2023-03-24T21:05:16.806Z,75.80
2023-03-24T21:10:44.958Z,76.80
2023-03-24T21:16:14.040Z,76.10
2023-03-24T21:21:42.973Z,76.20
2023-03-24T21:27:11.078Z,76.20
2023-03-24T21:32:40.109Z,76.10
2023-03-24T21:38:09.692Z,76.10
2023-03-24T21:43:38.361Z,75.90
2023-03-24T21:49:06.468Z,76.20
2023-03-24T21:54:34.411Z,76.10
2023-03-24T22:00:09.868Z,76.30
2023-03-24T22:05:41.053Z,76.30
2023-03-24T22:11:11.118Z,76.40
2023-03-24T22:16:39.403Z,76.40
2023-03-24T22:22:07.488Z,76.70
2023-03-24T22:27:35.888Z,76.60
2023-03-24T22:33:03.933Z,76.60
2023-03-24T22:38:32.146Z,76.60
2023-03-24T22:43:59.960Z,76.00
2023-03-24T22:49:29.098Z,76.70
2023-03-24T22:54:56.926Z,76.70
2023-03-24T23:00:25.982Z,77.00
2023-03-24T23:05:53.926Z,78.20
2023-03-24T23:11:22.243Z,79.10
2023-03-24T23:16:56.605Z,76.80
2023-03-24T23:22:24.852Z,76.80
2023-03-24T23:27:59.842Z,76.90
2023-03-24T23:33:27.940Z,76.90
2023-03-24T23:38:56.206Z,76.90
2023-03-24T23:44:25.509Z,77.00
2023-03-24T23:49:53.438Z,77.10
2023-03-24T23:55:22.893Z,77.70
